sensor_id;sensor_type;location;lat;lon;timestamp;P1;durP1;ratioP1;P2;durP2;ratioP2
86245;SDS011;76916;0.000;0.000;2024-03-06T08:25:49;17.400000;;;6.900000;;
86245;SDS011;76916;0.000;0.000;2024-03-06T08:26:44;8.700000;;;5.800000;;
86245;SDS011;76916;0.000;0.000;2024-03-06T08:28:20;15.000000;;;5.300000;;
86245;SDS011;76916;0.000;0.000;2024-03-06T08:29:21;10.000000;;;5.600000;;
86245;SDS011;76916;0.000;0.000;2024-03-06T08:30:10;9.000000;;;5.500000;;
86245;SDS011;76916;0.000;0.000;2024-03-06T08:31:05;10.200000;;;5.300000;;
86245;SDS011;76916;0.000;0.000;2024-03-06T08:32:00;11.200000;;;5.200000;;
86245;SDS011;76916;0.000;0.000;2024-03-06T08:32:55;10.100000;;;5.300000;;
86245;SDS011;76916;0.000;0.000;2024-03-06T08:33:50;10.500000;;;5.800000;;
86245;SDS011;76916;0.000;0.000;2024-03-06T08:34:45;12.200000;;;5.100000;;
86245;SDS011;76916;0.000;0.000;2024-03-06T09:22:15;11.200000;;;6.100000;;
86245;SDS011;76916;0.000;0.000;2024-03-06T09:23:10;8.000000;;;4.900000;;
86245;SDS011;76916;0.000;0.000;2024-03-06T09:24:06;11.800000;;;5.600000;;
86245;SDS011;76916;0.000;0.000;2024-03-06T09:25:00;11.300000;;;5.500000;;
86245;SDS011;76916;0.000;0.000;2024-03-06T09:25:55;9.600000;;;5.100000;;
86245;SDS011;76916;0.000;0.000;2024-03-06T09:26:51;18.600000;;;4.400000;;
86245;SDS011;76916;0.000;0.000;2024-03-06T09:27:45;10.000000;;;5.200000;;
86245;SDS011;76916;0.000;0.000;2024-03-06T09:28:40;10.000000;;;5.700000;;
86245;SDS011;76916;0.000;0.000;2024-03-06T09:29:35;7.100000;;;4.600000;;
86245;SDS011;76916;0.000;0.000;2024-03-06T09:30:30;10.000000;;;4.600000;;
86245;SDS011;76916;0.000;0.000;2024-03-06T09:31:25;10.200000;;;5.200000;;
86245;SDS011;76916;0.000;0.000;2024-03-06T09:32:20;8.900000;;;4.900000;;
86245;SDS011;76916;0.000;0.000;2024-03-06T09:33:15;10.100000;;;4.700000;;
86245;SDS011;76916;0.000;0.000;2024-03-06T09:34:11;8.500000;;;5.100000;;
86245;SDS011;76916;0.000;0.000;2024-03-06T09:35:06;8.600000;;;4.400000;;
86245;SDS011;76916;0.000;0.000;2024-03-06T09:36:00;6.300000;;;4.400000;;
86245;SDS011;76916;0.000;0.000;2024-03-06T09:36:55;7.500000;;;4.200000;;
86245;SDS011;76916;0.000;0.000;2024-03-06T09:37:50;12.900000;;;5.000000;;
86245;SDS011;76916;0.000;0.000;2024-03-06T09:38:45;11.300000;;;5.300000;;
86245;SDS011;76916;0.000;0.000;2024-03-06T09:39:46;8.500000;;;4.700000;;
86245;SDS011;76916;0.000;0.000;2024-03-06T09:40:39;8.100000;;;5.300000;;
86245;SDS011;76916;0.000;0.000;2024-03-06T09:41:30;7.100000;;;4.500000;;
86245;SDS011;76916;0.000;0.000;2024-03-06T09:42:25;10.700000;;;4.900000;;
86245;SDS011;76916;0.000;0.000;2024-03-06T09:43:20;7.400000;;;4.500000;;
86245;SDS011;76916;0.000;0.000;2024-03-06T09:44:16;9.200000;;;4.300000;;
86245;SDS011;76916;0.000;0.000;2024-03-06T09:45:12;9.600000;;;4.900000;;
86245;SDS011;76916;0.000;0.000;2024-03-06T09:46:05;10.600000;;;5.400000;;
86245;SDS011;76916;0.000;0.000;2024-03-06T09:47:02;9.700000;;;4.900000;;
86245;SDS011;76916;0.000;0.000;2024-03-06T09:47:55;6.300000;;;4.200000;;
86245;SDS011;76916;0.000;0.000;2024-03-06T09:48:51;8.000000;;;4.500000;;
86245;SDS011;76916;0.000;0.000;2024-03-06T09:49:44;5.700000;;;3.900000;;
86245;SDS011;76916;0.000;0.000;2024-03-06T09:50:43;7.000000;;;4.600000;;
86245;SDS011;76916;0.000;0.000;2024-03-06T09:51:35;6.800000;;;4.400000;;
86245;SDS011;76916;0.000;0.000;2024-03-06T09:52:30;8.200000;;;4.500000;;
86245;SDS011;76916;0.000;0.000;2024-03-06T09:53:25;6.400000;;;4.600000;;
86245;SDS011;76916;0.000;0.000;2024-03-06T09:54:20;6.900000;;;4.500000;;
86245;SDS011;76916;0.000;0.000;2024-03-06T09:55:15;8.600000;;;4.800000;;
86245;SDS011;76916;0.000;0.000;2024-03-06T09:56:10;11.900000;;;4.100000;;
86245;SDS011;76916;0.000;0.000;2024-03-06T09:57:04;5.400000;;;4.000000;;
86245;SDS011;76916;0.000;0.000;2024-03-06T09:57:59;5.100000;;;3.800000;;
86245;SDS011;76916;0.000;0.000;2024-03-06T09:58:54;6.500000;;;4.300000;;
86245;SDS011;76916;0.000;0.000;2024-03-06T09:59:50;7.600000;;;4.500000;;
86245;SDS011;76916;0.000;0.000;2024-03-06T10:00:46;9.300000;;;4.500000;;
86245;SDS011;76916;0.000;0.000;2024-03-06T10:01:46;7.300000;;;3.900000;;
86245;SDS011;76916;0.000;0.000;2024-03-06T10:02:37;6.000000;;;3.900000;;
86245;SDS011;76916;0.000;0.000;2024-03-06T10:03:29;6.700000;;;4.500000;;
86245;SDS011;76916;0.000;0.000;2024-03-06T10:04:25;5.500000;;;4.300000;;
86245;SDS011;76916;0.000;0.000;2024-03-06T10:05:23;7.600000;;;4.400000;;
86245;SDS011;76916;0.000;0.000;2024-03-06T10:06:16;8.600000;;;3.900000;;
86245;SDS011;76916;0.000;0.000;2024-03-06T10:07:09;6.200000;;;3.500000;;
86245;SDS011;76916;0.000;0.000;2024-03-06T10:08:05;6.200000;;;3.800000;;
86245;SDS011;76916;0.000;0.000;2024-03-06T10:09:04;7.200000;;;4.000000;;
86245;SDS011;76916;0.000;0.000;2024-03-06T10:09:55;6.200000;;;4.200000;;
86245;SDS011;76916;0.000;0.000;2024-03-06T10:10:49;5.200000;;;3.900000;;
86245;SDS011;76916;0.000;0.000;2024-03-06T10:11:44;7.900000;;;4.300000;;
86245;SDS011;76916;0.000;0.000;2024-03-06T10:12:39;5.000000;;;3.400000;;
86245;SDS011;76916;0.000;0.000;2024-03-06T10:13:34;5.900000;;;4.300000;;
86245;SDS011;76916;0.000;0.000;2024-03-06T10:14:30;7.600000;;;4.600000;;
86245;SDS011;76916;0.000;0.000;2024-03-06T10:15:24;7.200000;;;4.600000;;
86245;SDS011;76916;0.000;0.000;2024-03-06T10:16:19;8.600000;;;4.300000;;
86245;SDS011;76916;0.000;0.000;2024-03-06T10:17:19;5.100000;;;4.000000;;
86245;SDS011;76916;0.000;0.000;2024-03-06T10:18:10;6.200000;;;4.400000;;
86245;SDS011;76916;0.000;0.000;2024-03-06T10:19:14;5.400000;;;4.300000;;
86245;SDS011;76916;0.000;0.000;2024-03-06T10:19:59;5.600000;;;3.700000;;
86245;SDS011;76916;0.000;0.000;2024-03-06T10:20:54;6.900000;;;4.300000;;
86245;SDS011;76916;0.000;0.000;2024-03-06T10:21:50;7.000000;;;4.000000;;
86245;SDS011;76916;0.000;0.000;2024-03-06T10:22:44;5.700000;;;4.300000;;
86245;SDS011;76916;0.000;0.000;2024-03-06T10:23:39;5.500000;;;3.800000;;
86245;SDS011;76916;0.000;0.000;2024-03-06T10:24:34;9.400000;;;4.800000;;
86245;SDS011;76916;0.000;0.000;2024-03-06T10:25:29;8.000000;;;4.500000;;
86245;SDS011;76916;0.000;0.000;2024-03-06T10:26:24;6.400000;;;3.900000;;
86245;SDS011;76916;0.000;0.000;2024-03-06T10:27:19;6.200000;;;4.500000;;
86245;SDS011;76916;0.000;0.000;2024-03-06T10:28:14;8.000000;;;4.700000;;
86245;SDS011;76916;0.000;0.000;2024-03-06T10:29:08;7.000000;;;4.500000;;
86245;SDS011;76916;0.000;0.000;2024-03-06T10:30:05;8.900000;;;5.200000;;
86245;SDS011;76916;0.000;0.000;2024-03-06T10:31:03;8.200000;;;5.100000;;
86245;SDS011;76916;0.000;0.000;2024-03-06T10:31:55;7.000000;;;5.100000;;
86245;SDS011;76916;0.000;0.000;2024-03-06T10:32:49;8.500000;;;5.600000;;
86245;SDS011;76916;0.000;0.000;2024-03-06T10:33:43;7.800000;;;5.100000;;
86245;SDS011;76916;0.000;0.000;2024-03-06T10:34:38;11.600000;;;5.100000;;
86245;SDS011;76916;0.000;0.000;2024-03-06T10:35:35;7.900000;;;5.100000;;
86245;SDS011;76916;0.000;0.000;2024-03-06T10:36:31;7.900000;;;5.200000;;
86245;SDS011;76916;0.000;0.000;2024-03-06T10:37:24;10.600000;;;5.300000;;
86245;SDS011;76916;0.000;0.000;2024-03-06T10:38:19;9.000000;;;5.000000;;
86245;SDS011;76916;0.000;0.000;2024-03-06T10:39:17;11.400000;;;5.500000;;
86245;SDS011;76916;0.000;0.000;2024-03-06T10:40:10;7.200000;;;5.100000;;
86245;SDS011;76916;0.000;0.000;2024-03-06T10:41:04;6.400000;;;4.500000;;
86245;SDS011;76916;0.000;0.000;2024-03-06T10:42:06;5.000000;;;4.500000;;
86245;SDS011;76916;0.000;0.000;2024-03-06T10:42:54;8.600000;;;4.300000;;
86245;SDS011;76916;0.000;0.000;2024-03-06T10:43:49;6.300000;;;4.800000;;
86245;SDS011;76916;0.000;0.000;2024-03-06T10:44:50;9.500000;;;4.700000;;
86245;SDS011;76916;0.000;0.000;2024-03-06T10:45:40;9.400000;;;4.300000;;
86245;SDS011;76916;0.000;0.000;2024-03-06T10:46:34;8.000000;;;4.600000;;
86245;SDS011;76916;0.000;0.000;2024-03-06T10:47:30;5.600000;;;4.300000;;
86245;SDS011;76916;0.000;0.000;2024-03-06T10:48:23;6.700000;;;4.500000;;
86245;SDS011;76916;0.000;0.000;2024-03-06T10:49:19;7.500000;;;4.800000;;
86245;SDS011;76916;0.000;0.000;2024-03-06T10:50:14;5.800000;;;4.600000;;
86245;SDS011;76916;0.000;0.000;2024-03-06T10:51:09;5.200000;;;4.300000;;
86245;SDS011;76916;0.000;0.000;2024-03-06T10:52:05;5.300000;;;4.400000;;
86245;SDS011;76916;0.000;0.000;2024-03-06T10:52:59;6.400000;;;4.600000;;
86245;SDS011;76916;0.000;0.000;2024-03-06T10:53:55;5.800000;;;4.400000;;
86245;SDS011;76916;0.000;0.000;2024-03-06T10:54:48;6.800000;;;4.600000;;
86245;SDS011;76916;0.000;0.000;2024-03-06T10:55:44;6.800000;;;4.500000;;
86245;SDS011;76916;0.000;0.000;2024-03-06T10:56:39;6.000000;;;4.600000;;
86245;SDS011;76916;0.000;0.000;2024-03-06T10:57:33;7.600000;;;4.500000;;
86245;SDS011;76916;0.000;0.000;2024-03-06T10:58:28;8.800000;;;5.000000;;
86245;SDS011;76916;0.000;0.000;2024-03-06T10:59:25;7.100000;;;4.500000;;
86245;SDS011;76916;0.000;0.000;2024-03-06T11:00:19;7.300000;;;4.500000;;
86245;SDS011;76916;0.000;0.000;2024-03-06T11:01:15;5.700000;;;4.300000;;
86245;SDS011;76916;0.000;0.000;2024-03-06T11:02:09;6.600000;;;3.900000;;
86245;SDS011;76916;0.000;0.000;2024-03-06T11:03:05;6.000000;;;4.600000;;
86245;SDS011;76916;0.000;0.000;2024-03-06T11:03:59;6.200000;;;4.000000;;
86245;SDS011;76916;0.000;0.000;2024-03-06T11:04:53;6.300000;;;4.300000;;
86245;SDS011;76916;0.000;0.000;2024-03-06T11:05:48;7.600000;;;4.700000;;
86245;SDS011;76916;0.000;0.000;2024-03-06T11:06:44;6.500000;;;4.100000;;
86245;SDS011;76916;0.000;0.000;2024-03-06T11:07:38;7.900000;;;4.100000;;
86245;SDS011;76916;0.000;0.000;2024-03-06T11:08:33;4.900000;;;4.200000;;
86245;SDS011;76916;0.000;0.000;2024-03-06T11:09:28;5.800000;;;4.000000;;
86245;SDS011;76916;0.000;0.000;2024-03-06T11:10:31;5.300000;;;4.300000;;
86245;SDS011;76916;0.000;0.000;2024-03-06T11:11:19;5.900000;;;4.200000;;
86245;SDS011;76916;0.000;0.000;2024-03-06T11:12:13;5.600000;;;4.400000;;
86245;SDS011;76916;0.000;0.000;2024-03-06T11:13:10;5.400000;;;3.900000;;
86245;SDS011;76916;0.000;0.000;2024-03-06T11:14:04;6.000000;;;4.200000;;
86245;SDS011;76916;0.000;0.000;2024-03-06T11:14:58;6.000000;;;4.400000;;
86245;SDS011;76916;0.000;0.000;2024-03-06T11:15:53;6.200000;;;4.500000;;
86245;SDS011;76916;0.000;0.000;2024-03-06T11:17:04;7.700000;;;4.500000;;
86245;SDS011;76916;0.000;0.000;2024-03-06T11:17:42;6.900000;;;4.200000;;
86245;SDS011;76916;0.000;0.000;2024-03-06T11:18:41;5.400000;;;4.000000;;
86245;SDS011;76916;0.000;0.000;2024-03-06T11:20:08;6.200000;;;3.700000;;
86245;SDS011;76916;0.000;0.000;2024-03-06T11:20:33;5.900000;;;4.000000;;
86245;SDS011;76916;0.000;0.000;2024-03-06T11:21:31;5.200000;;;4.000000;;
86245;SDS011;76916;0.000;0.000;2024-03-06T11:22:18;6.100000;;;4.700000;;
86245;SDS011;76916;0.000;0.000;2024-03-06T11:23:13;4.700000;;;3.800000;;
86245;SDS011;76916;0.000;0.000;2024-03-06T11:24:17;6.300000;;;4.200000;;
86245;SDS011;76916;0.000;0.000;2024-03-06T11:25:02;5.100000;;;3.900000;;
86245;SDS011;76916;0.000;0.000;2024-03-06T11:26:02;4.500000;;;3.800000;;
86245;SDS011;76916;0.000;0.000;2024-03-06T11:26:56;5.100000;;;3.900000;;
86245;SDS011;76916;0.000;0.000;2024-03-06T11:28:02;5.900000;;;4.200000;;
86245;SDS011;76916;0.000;0.000;2024-03-06T11:28:42;4.600000;;;3.600000;;
86245;SDS011;76916;0.000;0.000;2024-03-06T11:30:09;7.000000;;;3.900000;;
86245;SDS011;76916;0.000;0.000;2024-03-06T11:30:32;5.400000;;;4.200000;;
86245;SDS011;76916;0.000;0.000;2024-03-06T11:31:27;4.900000;;;3.700000;;
86245;SDS011;76916;0.000;0.000;2024-03-06T11:32:22;5.800000;;;4.100000;;
86245;SDS011;76916;0.000;0.000;2024-03-06T11:33:18;4.400000;;;3.900000;;
86245;SDS011;76916;0.000;0.000;2024-03-06T11:34:15;4.800000;;;3.700000;;
86245;SDS011;76916;0.000;0.000;2024-03-06T11:35:07;5.100000;;;3.800000;;
86245;SDS011;76916;0.000;0.000;2024-03-06T11:36:19;4.300000;;;3.800000;;
86245;SDS011;76916;0.000;0.000;2024-03-06T11:36:57;4.300000;;;3.800000;;
86245;SDS011;76916;0.000;0.000;2024-03-06T11:37:53;4.800000;;;4.000000;;
86245;SDS011;76916;0.000;0.000;2024-03-06T11:38:50;5.000000;;;3.900000;;
86245;SDS011;76916;0.000;0.000;2024-03-06T11:39:42;5.000000;;;3.800000;;
86245;SDS011;76916;0.000;0.000;2024-03-06T11:40:43;7.200000;;;4.100000;;
86245;SDS011;76916;0.000;0.000;2024-03-06T11:41:46;5.900000;;;4.300000;;
86245;SDS011;76916;0.000;0.000;2024-03-06T11:42:32;5.200000;;;4.200000;;
86245;SDS011;76916;0.000;0.000;2024-03-06T11:43:24;5.200000;;;3.400000;;
86245;SDS011;76916;0.000;0.000;2024-03-06T11:44:18;4.400000;;;3.900000;;
86245;SDS011;76916;0.000;0.000;2024-03-06T11:45:13;4.300000;;;3.500000;;
86245;SDS011;76916;0.000;0.000;2024-03-06T11:46:08;5.100000;;;3.600000;;
86245;SDS011;76916;0.000;0.000;2024-03-06T11:47:03;5.100000;;;3.500000;;
86245;SDS011;76916;0.000;0.000;2024-03-06T11:48:00;5.400000;;;3.600000;;
86245;SDS011;76916;0.000;0.000;2024-03-06T11:48:55;4.800000;;;3.300000;;
86245;SDS011;76916;0.000;0.000;2024-03-06T11:49:47;5.600000;;;3.700000;;
86245;SDS011;76916;0.000;0.000;2024-03-06T11:50:42;5.600000;;;4.400000;;
86245;SDS011;76916;0.000;0.000;2024-03-06T11:51:38;6.000000;;;3.500000;;
86245;SDS011;76916;0.000;0.000;2024-03-06T11:52:32;5.200000;;;4.200000;;
86245;SDS011;76916;0.000;0.000;2024-03-06T11:53:28;5.000000;;;4.000000;;
86245;SDS011;76916;0.000;0.000;2024-03-06T11:54:23;6.800000;;;4.300000;;
86245;SDS011;76916;0.000;0.000;2024-03-06T11:55:17;5.200000;;;4.100000;;
86245;SDS011;76916;0.000;0.000;2024-03-06T11:56:12;4.700000;;;3.800000;;
86245;SDS011;76916;0.000;0.000;2024-03-06T11:57:07;5.200000;;;4.000000;;
86245;SDS011;76916;0.000;0.000;2024-03-06T11:58:02;5.900000;;;4.200000;;
86245;SDS011;76916;0.000;0.000;2024-03-06T11:58:57;4.900000;;;4.100000;;
86245;SDS011;76916;0.000;0.000;2024-03-06T11:59:52;4.800000;;;3.800000;;
86245;SDS011;76916;0.000;0.000;2024-03-06T12:00:47;5.800000;;;3.600000;;
86245;SDS011;76916;0.000;0.000;2024-03-06T12:01:42;6.100000;;;4.000000;;
86245;SDS011;76916;0.000;0.000;2024-03-06T12:02:37;5.500000;;;4.300000;;
86245;SDS011;76916;0.000;0.000;2024-03-06T12:03:31;4.300000;;;3.700000;;
86245;SDS011;76916;0.000;0.000;2024-03-06T12:04:27;5.600000;;;4.200000;;
86245;SDS011;76916;0.000;0.000;2024-03-06T12:05:22;4.500000;;;4.000000;;
86245;SDS011;76916;0.000;0.000;2024-03-06T12:06:16;5.100000;;;3.800000;;
86245;SDS011;76916;0.000;0.000;2024-03-06T12:07:11;4.400000;;;3.600000;;
86245;SDS011;76916;0.000;0.000;2024-03-06T12:08:07;5.400000;;;4.000000;;
86245;SDS011;76916;0.000;0.000;2024-03-06T12:09:02;5.400000;;;3.800000;;
86245;SDS011;76916;0.000;0.000;2024-03-06T12:09:57;5.600000;;;4.200000;;
86245;SDS011;76916;0.000;0.000;2024-03-06T12:10:51;5.800000;;;4.300000;;
86245;SDS011;76916;0.000;0.000;2024-03-06T12:11:47;6.300000;;;3.900000;;
86245;SDS011;76916;0.000;0.000;2024-03-06T12:12:42;4.800000;;;3.700000;;
86245;SDS011;76916;0.000;0.000;2024-03-06T12:13:41;4.600000;;;3.800000;;
86245;SDS011;76916;0.000;0.000;2024-03-06T12:14:35;6.700000;;;4.400000;;
86245;SDS011;76916;0.000;0.000;2024-03-06T12:15:26;4.800000;;;4.000000;;
86245;SDS011;76916;0.000;0.000;2024-03-06T12:16:21;6.000000;;;3.900000;;
86245;SDS011;76916;0.000;0.000;2024-03-06T12:17:16;5.500000;;;4.300000;;
86245;SDS011;76916;0.000;0.000;2024-03-06T12:18:11;4.700000;;;3.700000;;
86245;SDS011;76916;0.000;0.000;2024-03-06T12:19:06;4.800000;;;3.700000;;
86245;SDS011;76916;0.000;0.000;2024-03-06T12:20:04;5.800000;;;3.700000;;
86245;SDS011;76916;0.000;0.000;2024-03-06T12:20:56;6.000000;;;3.400000;;
86245;SDS011;76916;0.000;0.000;2024-03-06T12:21:51;4.900000;;;4.200000;;
86245;SDS011;76916;0.000;0.000;2024-03-06T12:22:48;4.900000;;;3.900000;;
86245;SDS011;76916;0.000;0.000;2024-03-06T12:23:41;7.100000;;;4.300000;;
86245;SDS011;76916;0.000;0.000;2024-03-06T12:24:36;5.400000;;;3.800000;;
86245;SDS011;76916;0.000;0.000;2024-03-06T12:25:31;4.600000;;;3.800000;;
86245;SDS011;76916;0.000;0.000;2024-03-06T12:26:26;4.200000;;;3.400000;;
86245;SDS011;76916;0.000;0.000;2024-03-06T12:27:22;5.400000;;;4.200000;;
86245;SDS011;76916;0.000;0.000;2024-03-06T12:28:23;4.900000;;;3.700000;;
86245;SDS011;76916;0.000;0.000;2024-03-06T12:29:11;4.700000;;;3.800000;;
86245;SDS011;76916;0.000;0.000;2024-03-06T12:30:09;4.900000;;;3.700000;;
86245;SDS011;76916;0.000;0.000;2024-03-06T12:31:02;5.300000;;;4.100000;;
86245;SDS011;76916;0.000;0.000;2024-03-06T12:31:57;5.800000;;;3.500000;;
86245;SDS011;76916;0.000;0.000;2024-03-06T12:32:56;4.400000;;;3.600000;;
86245;SDS011;76916;0.000;0.000;2024-03-06T12:33:46;5.400000;;;4.200000;;
86245;SDS011;76916;0.000;0.000;2024-03-06T12:34:44;4.500000;;;3.800000;;
86245;SDS011;76916;0.000;0.000;2024-03-06T12:35:36;5.900000;;;4.100000;;
86245;SDS011;76916;0.000;0.000;2024-03-06T12:36:31;5.100000;;;3.300000;;
86245;SDS011;76916;0.000;0.000;2024-03-06T12:37:30;7.000000;;;4.600000;;
86245;SDS011;76916;0.000;0.000;2024-03-06T12:38:21;6.300000;;;4.500000;;
86245;SDS011;76916;0.000;0.000;2024-03-06T12:39:16;6.400000;;;4.100000;;
86245;SDS011;76916;0.000;0.000;2024-03-06T12:40:12;4.700000;;;3.700000;;
86245;SDS011;76916;0.000;0.000;2024-03-06T12:41:06;5.100000;;;4.200000;;
86245;SDS011;76916;0.000;0.000;2024-03-06T12:42:01;4.800000;;;4.000000;;
86245;SDS011;76916;0.000;0.000;2024-03-06T12:42:57;5.000000;;;3.500000;;
86245;SDS011;76916;0.000;0.000;2024-03-06T12:43:51;4.700000;;;4.000000;;
86245;SDS011;76916;0.000;0.000;2024-03-06T12:44:46;4.900000;;;4.100000;;
86245;SDS011;76916;0.000;0.000;2024-03-06T12:45:41;6.800000;;;4.100000;;
86245;SDS011;76916;0.000;0.000;2024-03-06T12:46:37;4.800000;;;3.800000;;
86245;SDS011;76916;0.000;0.000;2024-03-06T12:47:31;4.200000;;;3.800000;;
86245;SDS011;76916;0.000;0.000;2024-03-06T12:48:25;5.300000;;;4.100000;;
86245;SDS011;76916;0.000;0.000;2024-03-06T12:49:21;3.900000;;;3.200000;;
86245;SDS011;76916;0.000;0.000;2024-03-06T12:50:15;6.100000;;;4.400000;;
86245;SDS011;76916;0.000;0.000;2024-03-06T12:51:11;5.600000;;;4.600000;;
86245;SDS011;76916;0.000;0.000;2024-03-06T12:52:05;4.200000;;;3.800000;;
86245;SDS011;76916;0.000;0.000;2024-03-06T12:53:00;6.500000;;;4.400000;;
86245;SDS011;76916;0.000;0.000;2024-03-06T12:53:55;5.200000;;;4.100000;;
86245;SDS011;76916;0.000;0.000;2024-03-06T12:54:53;6.900000;;;3.700000;;
86245;SDS011;76916;0.000;0.000;2024-03-06T12:55:45;4.700000;;;3.700000;;
86245;SDS011;76916;0.000;0.000;2024-03-06T12:56:42;4.900000;;;3.600000;;
86245;SDS011;76916;0.000;0.000;2024-03-06T12:57:36;4.700000;;;3.600000;;
86245;SDS011;76916;0.000;0.000;2024-03-06T12:58:30;5.200000;;;3.800000;;
86245;SDS011;76916;0.000;0.000;2024-03-06T12:59:25;5.000000;;;3.200000;;
86245;SDS011;76916;0.000;0.000;2024-03-06T13:00:20;4.000000;;;3.100000;;
86245;SDS011;76916;0.000;0.000;2024-03-06T13:01:15;5.000000;;;3.500000;;
86245;SDS011;76916;0.000;0.000;2024-03-06T13:02:10;4.900000;;;3.900000;;
86245;SDS011;76916;0.000;0.000;2024-03-06T13:03:06;4.400000;;;3.600000;;
86245;SDS011;76916;0.000;0.000;2024-03-06T13:04:02;5.400000;;;3.600000;;
86245;SDS011;76916;0.000;0.000;2024-03-06T13:04:55;5.400000;;;4.000000;;
86245;SDS011;76916;0.000;0.000;2024-03-06T13:05:50;6.000000;;;3.800000;;
86245;SDS011;76916;0.000;0.000;2024-03-06T13:06:45;4.500000;;;3.300000;;
86245;SDS011;76916;0.000;0.000;2024-03-06T13:07:42;4.500000;;;3.700000;;
86245;SDS011;76916;0.000;0.000;2024-03-06T13:08:38;6.100000;;;3.700000;;
86245;SDS011;76916;0.000;0.000;2024-03-06T13:09:30;4.900000;;;3.900000;;
86245;SDS011;76916;0.000;0.000;2024-03-06T13:10:25;4.900000;;;3.300000;;
86245;SDS011;76916;0.000;0.000;2024-03-06T13:11:20;4.600000;;;3.500000;;
86245;SDS011;76916;0.000;0.000;2024-03-06T13:12:15;4.800000;;;3.500000;;
86245;SDS011;76916;0.000;0.000;2024-03-06T13:13:10;5.000000;;;3.800000;;
86245;SDS011;76916;0.000;0.000;2024-03-06T13:14:05;4.500000;;;3.500000;;
86245;SDS011;76916;0.000;0.000;2024-03-06T13:15:00;6.000000;;;4.100000;;
86245;SDS011;76916;0.000;0.000;2024-03-06T13:15:55;5.500000;;;4.000000;;
86245;SDS011;76916;0.000;0.000;2024-03-06T13:16:50;4.300000;;;3.700000;;
86245;SDS011;76916;0.000;0.000;2024-03-06T13:17:45;4.300000;;;3.700000;;
86245;SDS011;76916;0.000;0.000;2024-03-06T13:18:46;4.200000;;;3.600000;;
86245;SDS011;76916;0.000;0.000;2024-03-06T13:19:35;4.700000;;;3.600000;;
86245;SDS011;76916;0.000;0.000;2024-03-06T13:20:30;4.600000;;;3.700000;;
86245;SDS011;76916;0.000;0.000;2024-03-06T13:21:25;4.500000;;;3.600000;;
86245;SDS011;76916;0.000;0.000;2024-03-06T13:22:20;4.600000;;;3.800000;;
86245;SDS011;76916;0.000;0.000;2024-03-06T13:23:14;5.800000;;;3.900000;;
86245;SDS011;76916;0.000;0.000;2024-03-06T13:24:10;6.300000;;;3.800000;;
86245;SDS011;76916;0.000;0.000;2024-03-06T13:25:05;4.400000;;;3.700000;;
86245;SDS011;76916;0.000;0.000;2024-03-06T13:25:59;3.700000;;;3.300000;;
86245;SDS011;76916;0.000;0.000;2024-03-06T13:26:55;4.900000;;;3.400000;;
86245;SDS011;76916;0.000;0.000;2024-03-06T13:27:50;5.200000;;;3.700000;;
86245;SDS011;76916;0.000;0.000;2024-03-06T13:28:45;4.800000;;;4.100000;;
86245;SDS011;76916;0.000;0.000;2024-03-06T13:29:39;4.700000;;;3.500000;;
86245;SDS011;76916;0.000;0.000;2024-03-06T13:30:35;5.200000;;;3.200000;;
86245;SDS011;76916;0.000;0.000;2024-03-06T13:31:30;5.400000;;;3.900000;;
86245;SDS011;76916;0.000;0.000;2024-03-06T13:32:24;4.500000;;;3.600000;;
86245;SDS011;76916;0.000;0.000;2024-03-06T13:33:19;4.200000;;;3.500000;;
86245;SDS011;76916;0.000;0.000;2024-03-06T13:34:14;4.500000;;;3.500000;;
86245;SDS011;76916;0.000;0.000;2024-03-06T13:35:09;4.700000;;;3.600000;;
86245;SDS011;76916;0.000;0.000;2024-03-06T13:36:05;5.100000;;;3.800000;;
86245;SDS011;76916;0.000;0.000;2024-03-06T13:37:00;4.800000;;;3.700000;;
86245;SDS011;76916;0.000;0.000;2024-03-06T13:37:54;4.200000;;;3.200000;;
86245;SDS011;76916;0.000;0.000;2024-03-06T13:38:50;5.600000;;;4.000000;;
86245;SDS011;76916;0.000;0.000;2024-03-06T13:39:44;4.700000;;;3.600000;;
86245;SDS011;76916;0.000;0.000;2024-03-06T13:40:39;4.800000;;;3.500000;;
86245;SDS011;76916;0.000;0.000;2024-03-06T13:41:34;4.300000;;;3.200000;;
86245;SDS011;76916;0.000;0.000;2024-03-06T13:42:29;4.700000;;;3.700000;;
86245;SDS011;76916;0.000;0.000;2024-03-06T13:43:24;4.400000;;;3.600000;;
86245;SDS011;76916;0.000;0.000;2024-03-06T13:44:19;5.200000;;;3.400000;;
86245;SDS011;76916;0.000;0.000;2024-03-06T13:45:14;5.600000;;;3.800000;;
86245;SDS011;76916;0.000;0.000;2024-03-06T13:46:09;5.000000;;;4.000000;;
86245;SDS011;76916;0.000;0.000;2024-03-06T13:47:06;5.300000;;;3.600000;;
86245;SDS011;76916;0.000;0.000;2024-03-06T13:48:00;4.400000;;;3.600000;;
86245;SDS011;76916;0.000;0.000;2024-03-06T13:48:55;5.200000;;;4.000000;;
86245;SDS011;76916;0.000;0.000;2024-03-06T13:49:49;6.100000;;;4.300000;;
86245;SDS011;76916;0.000;0.000;2024-03-06T13:50:45;4.700000;;;4.000000;;
86245;SDS011;76916;0.000;0.000;2024-03-06T13:51:39;5.300000;;;3.700000;;
86245;SDS011;76916;0.000;0.000;2024-03-06T13:52:34;4.100000;;;3.500000;;
86245;SDS011;76916;0.000;0.000;2024-03-06T13:53:30;5.200000;;;3.700000;;
86245;SDS011;76916;0.000;0.000;2024-03-06T13:54:24;4.900000;;;4.000000;;
86245;SDS011;76916;0.000;0.000;2024-03-06T13:55:19;3.800000;;;3.400000;;
86245;SDS011;76916;0.000;0.000;2024-03-06T13:56:14;5.000000;;;3.800000;;
86245;SDS011;76916;0.000;0.000;2024-03-06T13:57:09;5.200000;;;4.000000;;
86245;SDS011;76916;0.000;0.000;2024-03-06T13:58:04;4.300000;;;3.500000;;
86245;SDS011;76916;0.000;0.000;2024-03-06T13:58:59;4.200000;;;3.600000;;
86245;SDS011;76916;0.000;0.000;2024-03-06T13:59:54;4.300000;;;3.400000;;
86245;SDS011;76916;0.000;0.000;2024-03-06T14:00:49;4.600000;;;3.900000;;
86245;SDS011;76916;0.000;0.000;2024-03-06T14:01:44;4.600000;;;3.700000;;
86245;SDS011;76916;0.000;0.000;2024-03-06T14:02:39;4.300000;;;3.200000;;
86245;SDS011;76916;0.000;0.000;2024-03-06T14:03:34;5.000000;;;3.600000;;
86245;SDS011;76916;0.000;0.000;2024-03-06T14:04:29;4.700000;;;3.600000;;
86245;SDS011;76916;0.000;0.000;2024-03-06T14:05:24;3.700000;;;3.300000;;
86245;SDS011;76916;0.000;0.000;2024-03-06T14:06:19;3.900000;;;3.400000;;
86245;SDS011;76916;0.000;0.000;2024-03-06T14:07:14;4.900000;;;3.900000;;
86245;SDS011;76916;0.000;0.000;2024-03-06T14:08:12;5.400000;;;3.600000;;
86245;SDS011;76916;0.000;0.000;2024-03-06T14:09:04;4.800000;;;3.800000;;
86245;SDS011;76916;0.000;0.000;2024-03-06T14:09:59;8.200000;;;4.000000;;
86245;SDS011;76916;0.000;0.000;2024-03-06T14:10:55;4.900000;;;4.000000;;
86245;SDS011;76916;0.000;0.000;2024-03-06T14:11:49;4.200000;;;3.400000;;